sensor_id;sensor_type;location;lat;lon;timestamp;P1;durP1;ratioP1;P2;durP2;ratioP2
53052;SDS011;38934;52.690;6.184;2023-02-01T00:03:25;16.98;;;3.83;;
53052;SDS011;38934;52.690;6.184;2023-02-01T00:11:48;17.95;;;3.10;;
53052;SDS011;38934;52.690;6.184;2023-02-01T00:32:10;15.00;;;3.42;;
53052;SDS011;38934;52.690;6.184;2023-02-01T00:49:21;20.35;;;3.97;;
53052;SDS011;38934;52.690;6.184;2023-02-01T00:57:40;15.35;;;3.35;;
53052;SDS011;38934;52.690;6.184;2023-02-01T01:03:06;16.15;;;3.70;;
53052;SDS011;38934;52.690;6.184;2023-02-01T01:05:48;13.35;;;3.55;;
53052;SDS011;38934;52.690;6.184;2023-02-01T01:08:20;15.55;;;3.72;;
53052;SDS011;38934;52.690;6.184;2023-02-01T01:10:56;23.45;;;4.10;;
53052;SDS011;38934;52.690;6.184;2023-02-01T01:16:20;18.08;;;3.67;;
53052;SDS011;38934;52.690;6.184;2023-02-01T01:19:00;15.80;;;3.65;;
53052;SDS011;38934;52.690;6.184;2023-02-01T01:21:26;16.73;;;3.50;;
53052;SDS011;38934;52.690;6.184;2023-02-01T01:30:44;15.38;;;3.72;;
53052;SDS011;38934;52.690;6.184;2023-02-01T01:35:45;16.70;;;3.85;;
53052;SDS011;38934;52.690;6.184;2023-02-01T01:38:14;12.98;;;3.70;;
53052;SDS011;38934;52.690;6.184;2023-02-01T01:50:19;17.30;;;3.63;;
53052;SDS011;38934;52.690;6.184;2023-02-01T01:52:55;16.52;;;3.40;;
53052;SDS011;38934;52.690;6.184;2023-02-01T01:58:23;18.13;;;3.55;;
53052;SDS011;38934;52.690;6.184;2023-02-01T02:03:57;17.63;;;3.30;;
53052;SDS011;38934;52.690;6.184;2023-02-01T02:09:44;14.38;;;3.65;;
53052;SDS011;38934;52.690;6.184;2023-02-01T02:12:21;16.10;;;4.03;;
53052;SDS011;38934;52.690;6.184;2023-02-01T02:33:46;14.85;;;3.38;;
53052;SDS011;38934;52.690;6.184;2023-02-01T02:39:24;16.38;;;4.32;;
53052;SDS011;38934;52.690;6.184;2023-02-01T02:43:03;22.38;;;3.92;;
53052;SDS011;38934;52.690;6.184;2023-02-01T02:46:35;19.73;;;4.07;;
53052;SDS011;38934;52.690;6.184;2023-02-01T02:49:42;19.13;;;3.75;;
53052;SDS011;38934;52.690;6.184;2023-02-01T02:53:21;18.20;;;3.42;;
53052;SDS011;38934;52.690;6.184;2023-02-01T02:56:51;21.83;;;3.97;;
53052;SDS011;38934;52.690;6.184;2023-02-01T02:59:45;17.25;;;4.10;;
53052;SDS011;38934;52.690;6.184;2023-02-01T03:02:33;18.70;;;3.95;;
53052;SDS011;38934;52.690;6.184;2023-02-01T03:05:35;21.95;;;4.30;;
53052;SDS011;38934;52.690;6.184;2023-02-01T03:11:07;15.38;;;3.25;;
53052;SDS011;38934;52.690;6.184;2023-02-01T03:19:48;15.40;;;3.72;;
53052;SDS011;38934;52.690;6.184;2023-02-01T03:22:24;15.18;;;3.47;;
53052;SDS011;38934;52.690;6.184;2023-02-01T03:25:04;16.40;;;3.33;;
53052;SDS011;38934;52.690;6.184;2023-02-01T03:30:40;16.10;;;4.95;;
53052;SDS011;38934;52.690;6.184;2023-02-01T03:33:21;15.63;;;3.50;;
53052;SDS011;38934;52.690;6.184;2023-02-01T03:42:54;24.00;;;4.00;;
53052;SDS011;38934;52.690;6.184;2023-02-01T03:48:49;16.30;;;4.28;;
53052;SDS011;38934;52.690;6.184;2023-02-01T03:54:21;17.98;;;3.88;;
53052;SDS011;38934;52.690;6.184;2023-02-01T04:00:09;22.20;;;3.83;;
53052;SDS011;38934;52.690;6.184;2023-02-01T04:06:32;14.45;;;3.78;;
53052;SDS011;38934;52.690;6.184;2023-02-01T04:18:22;20.92;;;3.22;;
53052;SDS011;38934;52.690;6.184;2023-02-01T04:21:03;15.43;;;3.97;;
53052;SDS011;38934;52.690;6.184;2023-02-01T04:23:39;15.18;;;4.28;;
53052;SDS011;38934;52.690;6.184;2023-02-01T04:26:12;17.23;;;4.15;;
53052;SDS011;38934;52.690;6.184;2023-02-01T04:31:43;14.88;;;3.45;;
53052;SDS011;38934;52.690;6.184;2023-02-01T04:46:34;17.40;;;3.95;;
53052;SDS011;38934;52.690;6.184;2023-02-01T04:54:53;17.55;;;4.40;;
53052;SDS011;38934;52.690;6.184;2023-02-01T04:57:23;27.15;;;4.07;;
53052;SDS011;38934;52.690;6.184;2023-02-01T04:59:52;23.35;;;3.60;;
53052;SDS011;38934;52.690;6.184;2023-02-01T05:02:19;13.98;;;3.42;;
53052;SDS011;38934;52.690;6.184;2023-02-01T05:04:47;13.00;;;3.30;;
53052;SDS011;38934;52.690;6.184;2023-02-01T05:07:12;19.33;;;4.03;;
53052;SDS011;38934;52.690;6.184;2023-02-01T05:09:38;16.45;;;3.35;;
53052;SDS011;38934;52.690;6.184;2023-02-01T05:12:06;14.98;;;3.78;;
53052;SDS011;38934;52.690;6.184;2023-02-01T05:15:10;14.20;;;3.30;;
53052;SDS011;38934;52.690;6.184;2023-02-01T05:17:36;13.48;;;4.15;;
53052;SDS011;38934;52.690;6.184;2023-02-01T05:20:02;13.95;;;3.67;;
53052;SDS011;38934;52.690;6.184;2023-02-01T05:22:41;18.75;;;3.80;;
53052;SDS011;38934;52.690;6.184;2023-02-01T05:25:13;19.95;;;3.67;;
53052;SDS011;38934;52.690;6.184;2023-02-01T05:27:53;17.70;;;4.00;;
53052;SDS011;38934;52.690;6.184;2023-02-01T05:30:20;15.60;;;4.30;;
53052;SDS011;38934;52.690;6.184;2023-02-01T05:35:48;14.70;;;3.75;;
53052;SDS011;38934;52.690;6.184;2023-02-01T05:38:16;14.35;;;3.40;;
53052;SDS011;38934;52.690;6.184;2023-02-01T05:40:57;17.35;;;3.20;;
53052;SDS011;38934;52.690;6.184;2023-02-01T05:43:33;16.08;;;3.35;;
53052;SDS011;38934;52.690;6.184;2023-02-01T05:49:02;13.45;;;3.33;;
53052;SDS011;38934;52.690;6.184;2023-02-01T05:51:34;13.48;;;3.33;;
53052;SDS011;38934;52.690;6.184;2023-02-01T05:57:07;14.27;;;3.67;;
53052;SDS011;38934;52.690;6.184;2023-02-01T06:02:24;11.45;;;3.92;;
53052;SDS011;38934;52.690;6.184;2023-02-01T06:07:41;11.77;;;3.28;;
53052;SDS011;38934;52.690;6.184;2023-02-01T06:10:09;15.30;;;3.10;;
53052;SDS011;38934;52.690;6.184;2023-02-01T06:12:36;15.95;;;3.78;;
53052;SDS011;38934;52.690;6.184;2023-02-01T06:18:15;15.00;;;3.28;;
53052;SDS011;38934;52.690;6.184;2023-02-01T06:23:20;14.48;;;3.60;;
53052;SDS011;38934;52.690;6.184;2023-02-01T06:31:30;19.52;;;3.90;;
53052;SDS011;38934;52.690;6.184;2023-02-01T06:36:29;15.32;;;3.63;;
53052;SDS011;38934;52.690;6.184;2023-02-01T06:39:01;13.65;;;3.97;;
53052;SDS011;38934;52.690;6.184;2023-02-01T06:41:39;11.88;;;3.25;;
53052;SDS011;38934;52.690;6.184;2023-02-01T06:44:05;16.50;;;3.70;;
53052;SDS011;38934;52.690;6.184;2023-02-01T06:46:34;11.18;;;3.42;;
53052;SDS011;38934;52.690;6.184;2023-02-01T06:51:48;17.35;;;4.00;;
53052;SDS011;38934;52.690;6.184;2023-02-01T07:00:03;14.80;;;3.13;;
53052;SDS011;38934;52.690;6.184;2023-02-01T07:02:35;16.55;;;3.83;;
53052;SDS011;38934;52.690;6.184;2023-02-01T07:13:34;10.20;;;3.42;;
53052;SDS011;38934;52.690;6.184;2023-02-01T07:16:14;19.38;;;3.63;;
53052;SDS011;38934;52.690;6.184;2023-02-01T07:21:41;14.35;;;3.03;;
53052;SDS011;38934;52.690;6.184;2023-02-01T07:27:20;22.55;;;3.78;;
53052;SDS011;38934;52.690;6.184;2023-02-01T07:35:30;14.88;;;3.33;;
53052;SDS011;38934;52.690;6.184;2023-02-01T07:37:57;12.55;;;3.58;;
53052;SDS011;38934;52.690;6.184;2023-02-01T07:40:23;15.38;;;3.75;;
53052;SDS011;38934;52.690;6.184;2023-02-01T07:42:56;18.08;;;3.42;;
53052;SDS011;38934;52.690;6.184;2023-02-01T07:45:37;15.43;;;3.97;;
53052;SDS011;38934;52.690;6.184;2023-02-01T08:00:50;15.55;;;3.10;;
53052;SDS011;38934;52.690;6.184;2023-02-01T08:03:57;18.95;;;3.83;;
53052;SDS011;38934;52.690;6.184;2023-02-01T08:06:27;17.08;;;4.78;;
53052;SDS011;38934;52.690;6.184;2023-02-01T08:14:33;14.73;;;4.10;;
53052;SDS011;38934;52.690;6.184;2023-02-01T08:19:46;21.23;;;5.07;;
53052;SDS011;38934;52.690;6.184;2023-02-01T08:25:01;12.77;;;3.28;;
53052;SDS011;38934;52.690;6.184;2023-02-01T08:31:08;12.40;;;3.03;;
53052;SDS011;38934;52.690;6.184;2023-02-01T08:33:53;14.27;;;2.95;;
53052;SDS011;38934;52.690;6.184;2023-02-01T08:42:25;14.95;;;4.68;;
53052;SDS011;38934;52.690;6.184;2023-02-01T08:45:35;16.88;;;4.18;;
53052;SDS011;38934;52.690;6.184;2023-02-01T08:58:00;13.60;;;3.17;;
53052;SDS011;38934;52.690;6.184;2023-02-01T09:06:10;16.75;;;5.00;;
53052;SDS011;38934;52.690;6.184;2023-02-01T09:17:10;22.05;;;5.10;;
53052;SDS011;38934;52.690;6.184;2023-02-01T09:19:38;17.42;;;4.18;;
53052;SDS011;38934;52.690;6.184;2023-02-01T09:25:39;21.35;;;4.15;;
53052;SDS011;38934;52.690;6.184;2023-02-01T09:33:36;12.35;;;4.07;;
53052;SDS011;38934;52.690;6.184;2023-02-01T09:38:35;10.30;;;2.75;;
53052;SDS011;38934;52.690;6.184;2023-02-01T09:56:40;18.45;;;3.22;;
53052;SDS011;38934;52.690;6.184;2023-02-01T10:28:24;21.65;;;5.05;;
53052;SDS011;38934;52.690;6.184;2023-02-01T10:30:56;11.93;;;3.30;;
53052;SDS011;38934;52.690;6.184;2023-02-01T10:33:30;11.60;;;3.03;;
53052;SDS011;38934;52.690;6.184;2023-02-01T10:40:03;13.80;;;3.40;;
53052;SDS011;38934;52.690;6.184;2023-02-01T10:42:46;14.07;;;3.70;;
53052;SDS011;38934;52.690;6.184;2023-02-01T10:45:18;16.75;;;3.50;;
53052;SDS011;38934;52.690;6.184;2023-02-01T10:56:49;15.90;;;3.70;;
53052;SDS011;38934;52.690;6.184;2023-02-01T10:59:29;13.75;;;2.92;;
53052;SDS011;38934;52.690;6.184;2023-02-01T11:02:01;16.67;;;3.53;;
53052;SDS011;38934;52.690;6.184;2023-02-01T11:05:00;12.27;;;3.47;;
53052;SDS011;38934;52.690;6.184;2023-02-01T11:10:42;19.67;;;3.92;;
53052;SDS011;38934;52.690;6.184;2023-02-01T11:13:15;13.38;;;3.35;;
53052;SDS011;38934;52.690;6.184;2023-02-01T11:18:39;16.02;;;3.35;;
53052;SDS011;38934;52.690;6.184;2023-02-01T11:21:07;15.68;;;3.58;;
53052;SDS011;38934;52.690;6.184;2023-02-01T11:29:17;17.23;;;4.18;;
53052;SDS011;38934;52.690;6.184;2023-02-01T11:34:35;15.65;;;4.22;;
53052;SDS011;38934;52.690;6.184;2023-02-01T11:40:25;15.85;;;3.97;;
53052;SDS011;38934;52.690;6.184;2023-02-01T12:12:35;17.85;;;3.67;;
53052;SDS011;38934;52.690;6.184;2023-02-01T12:51:38;16.90;;;3.45;;
53052;SDS011;38934;52.690;6.184;2023-02-01T12:56:46;23.27;;;4.20;;
53052;SDS011;38934;52.690;6.184;2023-02-01T12:59:28;19.50;;;4.45;;
53052;SDS011;38934;52.690;6.184;2023-02-01T13:05:24;19.00;;;3.92;;
53052;SDS011;38934;52.690;6.184;2023-02-01T13:08:14;16.98;;;4.55;;
53052;SDS011;38934;52.690;6.184;2023-02-01T13:11:00;22.08;;;4.20;;
53052;SDS011;38934;52.690;6.184;2023-02-01T13:25:47;16.27;;;3.25;;
53052;SDS011;38934;52.690;6.184;2023-02-01T13:43:07;18.40;;;3.88;;
53052;SDS011;38934;52.690;6.184;2023-02-01T13:45:22;14.35;;;4.32;;
53052;SDS011;38934;52.690;6.184;2023-02-01T13:47:58;16.38;;;3.85;;
53052;SDS011;38934;52.690;6.184;2023-02-01T13:50:41;21.20;;;3.55;;
53052;SDS011;38934;52.690;6.184;2023-02-01T13:53:22;18.60;;;3.97;;
53052;SDS011;38934;52.690;6.184;2023-02-01T13:58:59;19.20;;;3.83;;
53052;SDS011;38934;52.690;6.184;2023-02-01T14:08:12;21.95;;;3.97;;
53052;SDS011;38934;52.690;6.184;2023-02-01T14:10:56;18.80;;;4.78;;
53052;SDS011;38934;52.690;6.184;2023-02-01T14:16:41;20.58;;;3.70;;
53052;SDS011;38934;52.690;6.184;2023-02-01T14:19:28;19.92;;;4.20;;
53052;SDS011;38934;52.690;6.184;2023-02-01T14:24:54;21.48;;;5.07;;
53052;SDS011;38934;52.690;6.184;2023-02-01T14:27:26;18.85;;;5.40;;
53052;SDS011;38934;52.690;6.184;2023-02-01T14:29:58;21.52;;;4.85;;
53052;SDS011;38934;52.690;6.184;2023-02-01T14:32:31;24.85;;;7.03;;
53052;SDS011;38934;52.690;6.184;2023-02-01T14:38:02;22.73;;;5.40;;
53052;SDS011;38934;52.690;6.184;2023-02-01T14:40:31;23.98;;;5.43;;
53052;SDS011;38934;52.690;6.184;2023-02-01T14:46:10;24.70;;;5.10;;
53052;SDS011;38934;52.690;6.184;2023-02-01T14:59:08;22.38;;;4.65;;
53052;SDS011;38934;52.690;6.184;2023-02-01T15:01:48;30.92;;;6.03;;
53052;SDS011;38934;52.690;6.184;2023-02-01T15:04:26;22.58;;;4.93;;
53052;SDS011;38934;52.690;6.184;2023-02-01T15:12:32;19.40;;;4.90;;
53052;SDS011;38934;52.690;6.184;2023-02-01T15:17:57;27.67;;;5.82;;
53052;SDS011;38934;52.690;6.184;2023-02-01T15:20:27;15.48;;;3.53;;
53052;SDS011;38934;52.690;6.184;2023-02-01T15:23:15;14.85;;;3.78;;
53052;SDS011;38934;52.690;6.184;2023-02-01T15:25:46;18.63;;;3.55;;
53052;SDS011;38934;52.690;6.184;2023-02-01T15:28:23;13.07;;;4.30;;
53052;SDS011;38934;52.690;6.184;2023-02-01T15:30:59;18.08;;;3.65;;
53052;SDS011;38934;52.690;6.184;2023-02-01T15:33:35;15.05;;;3.58;;
53052;SDS011;38934;52.690;6.184;2023-02-01T15:36:16;14.82;;;4.15;;
53052;SDS011;38934;52.690;6.184;2023-02-01T15:39:19;22.67;;;4.22;;
53052;SDS011;38934;52.690;6.184;2023-02-01T15:41:43;18.38;;;3.60;;
53052;SDS011;38934;52.690;6.184;2023-02-01T15:44:43;17.98;;;4.03;;
53052;SDS011;38934;52.690;6.184;2023-02-01T15:47:20;11.70;;;3.40;;
53052;SDS011;38934;52.690;6.184;2023-02-01T15:49:55;14.02;;;3.47;;
53052;SDS011;38934;52.690;6.184;2023-02-01T15:54:55;17.10;;;4.03;;
53052;SDS011;38934;52.690;6.184;2023-02-01T16:00:21;15.15;;;3.45;;
53052;SDS011;38934;52.690;6.184;2023-02-01T16:09:11;21.77;;;4.68;;
53052;SDS011;38934;52.690;6.184;2023-02-01T16:11:56;17.80;;;4.00;;
53052;SDS011;38934;52.690;6.184;2023-02-01T16:14:26;13.60;;;3.72;;
53052;SDS011;38934;52.690;6.184;2023-02-01T16:19:49;21.80;;;5.13;;
53052;SDS011;38934;52.690;6.184;2023-02-01T16:22:15;17.58;;;4.45;;
53052;SDS011;38934;52.690;6.184;2023-02-01T16:24:41;17.63;;;5.50;;
53052;SDS011;38934;52.690;6.184;2023-02-01T16:27:07;17.90;;;4.63;;
53052;SDS011;38934;52.690;6.184;2023-02-01T16:29:38;18.70;;;4.65;;
53052;SDS011;38934;52.690;6.184;2023-02-01T16:32:06;21.67;;;4.80;;
53052;SDS011;38934;52.690;6.184;2023-02-01T16:34:36;17.55;;;5.35;;
53052;SDS011;38934;52.690;6.184;2023-02-01T16:39:37;16.88;;;4.30;;
53052;SDS011;38934;52.690;6.184;2023-02-01T16:42:08;18.10;;;3.28;;
53052;SDS011;38934;52.690;6.184;2023-02-01T16:44:37;22.58;;;4.38;;
53052;SDS011;38934;52.690;6.184;2023-02-01T16:47:36;22.15;;;4.60;;
53052;SDS011;38934;52.690;6.184;2023-02-01T16:49:59;20.40;;;4.53;;
53052;SDS011;38934;52.690;6.184;2023-02-01T16:52:25;29.15;;;6.60;;
53052;SDS011;38934;52.690;6.184;2023-02-01T16:54:51;23.90;;;4.82;;
53052;SDS011;38934;52.690;6.184;2023-02-01T16:57:18;21.10;;;4.28;;
53052;SDS011;38934;52.690;6.184;2023-02-01T16:59:48;19.50;;;5.03;;
53052;SDS011;38934;52.690;6.184;2023-02-01T17:02:15;21.35;;;5.10;;
53052;SDS011;38934;52.690;6.184;2023-02-01T17:04:44;25.42;;;5.20;;
53052;SDS011;38934;52.690;6.184;2023-02-01T17:07:18;15.15;;;3.90;;
53052;SDS011;38934;52.690;6.184;2023-02-01T17:09:45;25.73;;;4.75;;
53052;SDS011;38934;52.690;6.184;2023-02-01T17:12:23;32.53;;;5.65;;
53052;SDS011;38934;52.690;6.184;2023-02-01T17:14:52;29.35;;;4.90;;
53052;SDS011;38934;52.690;6.184;2023-02-01T17:17:18;20.92;;;4.90;;
53052;SDS011;38934;52.690;6.184;2023-02-01T17:19:46;34.38;;;6.05;;
53052;SDS011;38934;52.690;6.184;2023-02-01T17:22:22;33.67;;;5.82;;
53052;SDS011;38934;52.690;6.184;2023-02-01T17:24:48;26.50;;;4.07;;
53052;SDS011;38934;52.690;6.184;2023-02-01T17:27:17;30.90;;;5.43;;
53052;SDS011;38934;52.690;6.184;2023-02-01T17:29:43;28.25;;;5.18;;
53052;SDS011;38934;52.690;6.184;2023-02-01T17:32:21;30.90;;;5.43;;
53052;SDS011;38934;52.690;6.184;2023-02-01T17:34:57;35.47;;;6.78;;
53052;SDS011;38934;52.690;6.184;2023-02-01T17:37:27;27.08;;;5.80;;
53052;SDS011;38934;52.690;6.184;2023-02-01T17:39:55;29.35;;;5.40;;
53052;SDS011;38934;52.690;6.184;2023-02-01T17:42:23;21.95;;;3.97;;
53052;SDS011;38934;52.690;6.184;2023-02-01T17:44:54;26.75;;;4.30;;
53052;SDS011;38934;52.690;6.184;2023-02-01T17:47:22;25.05;;;5.00;;
53052;SDS011;38934;52.690;6.184;2023-02-01T17:50:02;27.25;;;5.72;;
53052;SDS011;38934;52.690;6.184;2023-02-01T17:52:34;22.55;;;4.80;;
53052;SDS011;38934;52.690;6.184;2023-02-01T17:55:00;19.65;;;4.70;;
53052;SDS011;38934;52.690;6.184;2023-02-01T17:57:28;24.48;;;6.20;;
53052;SDS011;38934;52.690;6.184;2023-02-01T17:59:59;19.65;;;4.03;;
53052;SDS011;38934;52.690;6.184;2023-02-01T18:02:25;23.92;;;5.90;;
53052;SDS011;38934;52.690;6.184;2023-02-01T18:04:50;18.77;;;5.78;;
53052;SDS011;38934;52.690;6.184;2023-02-01T18:07:16;25.23;;;5.30;;
53052;SDS011;38934;52.690;6.184;2023-02-01T18:09:43;31.92;;;6.10;;
53052;SDS011;38934;52.690;6.184;2023-02-01T18:12:19;22.80;;;4.68;;
53052;SDS011;38934;52.690;6.184;2023-02-01T18:14:46;18.63;;;4.97;;
53052;SDS011;38934;52.690;6.184;2023-02-01T18:17:12;21.38;;;3.80;;
53052;SDS011;38934;52.690;6.184;2023-02-01T18:19:50;17.60;;;4.03;;
53052;SDS011;38934;52.690;6.184;2023-02-01T18:22:17;21.52;;;5.55;;
53052;SDS011;38934;52.690;6.184;2023-02-01T18:24:45;28.63;;;5.70;;
53052;SDS011;38934;52.690;6.184;2023-02-01T18:27:11;21.10;;;5.38;;
53052;SDS011;38934;52.690;6.184;2023-02-01T18:29:46;27.13;;;6.25;;
53052;SDS011;38934;52.690;6.184;2023-02-01T18:32:19;22.95;;;4.90;;
53052;SDS011;38934;52.690;6.184;2023-02-01T18:37:14;18.30;;;3.63;;
53052;SDS011;38934;52.690;6.184;2023-02-01T18:42:08;16.35;;;3.70;;
53052;SDS011;38934;52.690;6.184;2023-02-01T18:44:35;27.75;;;4.47;;
53052;SDS011;38934;52.690;6.184;2023-02-01T18:47:04;19.98;;;3.70;;
53052;SDS011;38934;52.690;6.184;2023-02-01T18:49:32;23.77;;;3.92;;
53052;SDS011;38934;52.690;6.184;2023-02-01T18:51:58;19.90;;;4.57;;
53052;SDS011;38934;52.690;6.184;2023-02-01T18:54:24;23.33;;;3.78;;
53052;SDS011;38934;52.690;6.184;2023-02-01T18:56:57;23.20;;;3.97;;
53052;SDS011;38934;52.690;6.184;2023-02-01T18:59:27;18.92;;;3.63;;
53052;SDS011;38934;52.690;6.184;2023-02-01T19:01:53;21.58;;;4.38;;
53052;SDS011;38934;52.690;6.184;2023-02-01T19:04:18;19.70;;;4.18;;
53052;SDS011;38934;52.690;6.184;2023-02-01T19:09:17;32.45;;;4.82;;
53052;SDS011;38934;52.690;6.184;2023-02-01T19:11:43;24.42;;;4.00;;
53052;SDS011;38934;52.690;6.184;2023-02-01T19:14:17;19.27;;;3.67;;
53052;SDS011;38934;52.690;6.184;2023-02-01T19:16:43;19.10;;;4.03;;
53052;SDS011;38934;52.690;6.184;2023-02-01T19:19:09;23.02;;;3.50;;
53052;SDS011;38934;52.690;6.184;2023-02-01T19:21:34;18.98;;;3.95;;
53052;SDS011;38934;52.690;6.184;2023-02-01T19:24:00;22.70;;;3.83;;
53052;SDS011;38934;52.690;6.184;2023-02-01T19:26:30;24.73;;;4.40;;
53052;SDS011;38934;52.690;6.184;2023-02-01T19:28:59;21.77;;;4.03;;
53052;SDS011;38934;52.690;6.184;2023-02-01T19:31:25;18.15;;;4.65;;
53052;SDS011;38934;52.690;6.184;2023-02-01T19:33:51;21.33;;;4.07;;
53052;SDS011;38934;52.690;6.184;2023-02-01T19:36:33;21.45;;;4.57;;
53052;SDS011;38934;52.690;6.184;2023-02-01T19:39:11;17.30;;;4.70;;
53052;SDS011;38934;52.690;6.184;2023-02-01T19:41:37;28.10;;;5.32;;
53052;SDS011;38934;52.690;6.184;2023-02-01T19:44:04;19.60;;;3.88;;
53052;SDS011;38934;52.690;6.184;2023-02-01T19:46:31;23.20;;;4.03;;
53052;SDS011;38934;52.690;6.184;2023-02-01T19:48:56;21.02;;;4.63;;
53052;SDS011;38934;52.690;6.184;2023-02-01T19:51:24;18.58;;;4.05;;
53052;SDS011;38934;52.690;6.184;2023-02-01T19:53:50;23.63;;;4.47;;
53052;SDS011;38934;52.690;6.184;2023-02-01T19:56:15;30.15;;;4.90;;
53052;SDS011;38934;52.690;6.184;2023-02-01T19:58:42;27.65;;;5.70;;
53052;SDS011;38934;52.690;6.184;2023-02-01T20:01:09;23.88;;;5.60;;
53052;SDS011;38934;52.690;6.184;2023-02-01T20:03:36;21.77;;;3.92;;
53052;SDS011;38934;52.690;6.184;2023-02-01T20:06:01;16.58;;;3.45;;
53052;SDS011;38934;52.690;6.184;2023-02-01T20:08:27;20.33;;;3.97;;
53052;SDS011;38934;52.690;6.184;2023-02-01T20:10:53;25.48;;;4.82;;
53052;SDS011;38934;52.690;6.184;2023-02-01T20:13:18;24.98;;;4.13;;
53052;SDS011;38934;52.690;6.184;2023-02-01T20:15:44;19.92;;;4.22;;
53052;SDS011;38934;52.690;6.184;2023-02-01T20:18:10;21.90;;;4.53;;
53052;SDS011;38934;52.690;6.184;2023-02-01T20:20:36;17.77;;;3.67;;
53052;SDS011;38934;52.690;6.184;2023-02-01T20:23:02;18.90;;;4.07;;
53052;SDS011;38934;52.690;6.184;2023-02-01T20:25:28;24.80;;;4.22;;
53052;SDS011;38934;52.690;6.184;2023-02-01T20:27:58;22.85;;;4.35;;
53052;SDS011;38934;52.690;6.184;2023-02-01T20:30:24;22.55;;;4.40;;
53052;SDS011;38934;52.690;6.184;2023-02-01T20:32:50;25.05;;;4.25;;
53052;SDS011;38934;52.690;6.184;2023-02-01T20:35:16;19.55;;;3.97;;
53052;SDS011;38934;52.690;6.184;2023-02-01T20:37:42;22.05;;;4.45;;
53052;SDS011;38934;52.690;6.184;2023-02-01T20:40:09;21.75;;;4.18;;
53052;SDS011;38934;52.690;6.184;2023-02-01T20:42:37;24.48;;;4.50;;
53052;SDS011;38934;52.690;6.184;2023-02-01T20:45:03;19.70;;;4.95;;
53052;SDS011;38934;52.690;6.184;2023-02-01T20:47:29;22.92;;;4.20;;
53052;SDS011;38934;52.690;6.184;2023-02-01T20:49:55;26.45;;;6.03;;
53052;SDS011;38934;52.690;6.184;2023-02-01T20:52:21;29.30;;;5.30;;
53052;SDS011;38934;52.690;6.184;2023-02-01T20:54:46;29.45;;;5.60;;
53052;SDS011;38934;52.690;6.184;2023-02-01T20:57:12;27.52;;;5.40;;
53052;SDS011;38934;52.690;6.184;2023-02-01T20:59:38;30.58;;;4.88;;
53052;SDS011;38934;52.690;6.184;2023-02-01T21:02:07;30.23;;;5.43;;
53052;SDS011;38934;52.690;6.184;2023-02-01T21:04:34;26.70;;;5.22;;
53052;SDS011;38934;52.690;6.184;2023-02-01T21:07:00;28.73;;;4.93;;
53052;SDS011;38934;52.690;6.184;2023-02-01T21:09:27;26.55;;;5.25;;
53052;SDS011;38934;52.690;6.184;2023-02-01T21:11:54;30.38;;;5.32;;
53052;SDS011;38934;52.690;6.184;2023-02-01T21:14:20;33.58;;;5.32;;
53052;SDS011;38934;52.690;6.184;2023-02-01T21:16:46;27.00;;;4.80;;
53052;SDS011;38934;52.690;6.184;2023-02-01T21:19:16;27.42;;;4.45;;
53052;SDS011;38934;52.690;6.184;2023-02-01T21:21:43;23.23;;;4.65;;
53052;SDS011;38934;52.690;6.184;2023-02-01T21:24:14;25.25;;;4.63;;
53052;SDS011;38934;52.690;6.184;2023-02-01T21:26:40;21.45;;;3.95;;
53052;SDS011;38934;52.690;6.184;2023-02-01T21:29:07;23.75;;;4.75;;
53052;SDS011;38934;52.690;6.184;2023-02-01T21:31:34;23.83;;;4.50;;
53052;SDS011;38934;52.690;6.184;2023-02-01T21:34:03;31.20;;;4.55;;
53052;SDS011;38934;52.690;6.184;2023-02-01T21:36:28;25.80;;;3.80;;
53052;SDS011;38934;52.690;6.184;2023-02-01T21:39:04;26.85;;;4.53;;
53052;SDS011;38934;52.690;6.184;2023-02-01T21:41:32;29.15;;;4.80;;
53052;SDS011;38934;52.690;6.184;2023-02-01T21:44:19;22.88;;;4.78;;
53052;SDS011;38934;52.690;6.184;2023-02-01T21:46:45;21.85;;;4.05;;
53052;SDS011;38934;52.690;6.184;2023-02-01T21:49:11;21.98;;;4.25;;
53052;SDS011;38934;52.690;6.184;2023-02-01T21:51:37;21.40;;;4.13;;
53052;SDS011;38934;52.690;6.184;2023-02-01T21:54:07;22.50;;;4.10;;
53052;SDS011;38934;52.690;6.184;2023-02-01T21:56:34;21.10;;;3.65;;
53052;SDS011;38934;52.690;6.184;2023-02-01T21:59:00;23.17;;;3.60;;
53052;SDS011;38934;52.690;6.184;2023-02-01T22:01:27;20.08;;;4.00;;
53052;SDS011;38934;52.690;6.184;2023-02-01T22:03:53;22.95;;;3.72;;
53052;SDS011;38934;52.690;6.184;2023-02-01T22:08:52;23.42;;;3.60;;
53052;SDS011;38934;52.690;6.184;2023-02-01T22:11:18;23.98;;;4.03;;
53052;SDS011;38934;52.690;6.184;2023-02-01T22:13:44;17.10;;;3.65;;
53052;SDS011;38934;52.690;6.184;2023-02-01T22:16:10;19.33;;;3.35;;
53052;SDS011;38934;52.690;6.184;2023-02-01T22:18:35;12.95;;;3.25;;
53052;SDS011;38934;52.690;6.184;2023-02-01T22:21:01;21.30;;;3.83;;
53052;SDS011;38934;52.690;6.184;2023-02-01T22:23:34;22.02;;;3.33;;
53052;SDS011;38934;52.690;6.184;2023-02-01T22:26:03;14.65;;;3.17;;
53052;SDS011;38934;52.690;6.184;2023-02-01T22:28:34;17.30;;;3.85;;
53052;SDS011;38934;52.690;6.184;2023-02-01T22:31:01;22.25;;;3.88;;
53052;SDS011;38934;52.690;6.184;2023-02-01T22:33:28;21.40;;;3.53;;
53052;SDS011;38934;52.690;6.184;2023-02-01T22:35:54;13.70;;;2.95;;
53052;SDS011;38934;52.690;6.184;2023-02-01T22:38:20;18.85;;;3.05;;
53052;SDS011;38934;52.690;6.184;2023-02-01T22:40:52;14.65;;;2.58;;
53052;SDS011;38934;52.690;6.184;2023-02-01T22:43:19;15.45;;;3.00;;
53052;SDS011;38934;52.690;6.184;2023-02-01T22:45:46;14.40;;;2.70;;
53052;SDS011;38934;52.690;6.184;2023-02-01T22:48:11;14.30;;;3.58;;
53052;SDS011;38934;52.690;6.184;2023-02-01T22:50:37;11.68;;;2.33;;
53052;SDS011;38934;52.690;6.184;2023-02-01T22:53:03;22.45;;;2.67;;
53052;SDS011;38934;52.690;6.184;2023-02-01T22:55:31;11.43;;;2.50;;
53052;SDS011;38934;52.690;6.184;2023-02-01T22:57:59;14.95;;;3.17;;
53052;SDS011;38934;52.690;6.184;2023-02-01T23:00:25;16.83;;;2.70;;
53052;SDS011;38934;52.690;6.184;2023-02-01T23:02:53;11.93;;;2.45;;
53052;SDS011;38934;52.690;6.184;2023-02-01T23:05:19;10.20;;;2.67;;
53052;SDS011;38934;52.690;6.184;2023-02-01T23:07:46;15.23;;;2.88;;
53052;SDS011;38934;52.690;6.184;2023-02-01T23:10:14;17.67;;;3.05;;
53052;SDS011;38934;52.690;6.184;2023-02-01T23:12:46;13.35;;;3.35;;
53052;SDS011;38934;52.690;6.184;2023-02-01T23:15:12;12.90;;;3.00;;
53052;SDS011;38934;52.690;6.184;2023-02-01T23:17:40;14.63;;;3.05;;
53052;SDS011;38934;52.690;6.184;2023-02-01T23:20:08;13.82;;;2.97;;
53052;SDS011;38934;52.690;6.184;2023-02-01T23:22:41;11.75;;;2.90;;
53052;SDS011;38934;52.690;6.184;2023-02-01T23:25:08;13.68;;;2.35;;
53052;SDS011;38934;52.690;6.184;2023-02-01T23:27:35;9.68;;;2.30;;
53052;SDS011;38934;52.690;6.184;2023-02-01T23:30:01;8.77;;;2.60;;
53052;SDS011;38934;52.690;6.184;2023-02-01T23:32:27;14.93;;;2.95;;
53052;SDS011;38934;52.690;6.184;2023-02-01T23:34:53;12.20;;;3.00;;
53052;SDS011;38934;52.690;6.184;2023-02-01T23:37:18;13.55;;;2.30;;
53052;SDS011;38934;52.690;6.184;2023-02-01T23:39:44;10.25;;;2.80;;
53052;SDS011;38934;52.690;6.184;2023-02-01T23:42:10;16.13;;;2.80;;
53052;SDS011;38934;52.690;6.184;2023-02-01T23:44:35;20.40;;;2.90;;
53052;SDS011;38934;52.690;6.184;2023-02-01T23:47:01;19.00;;;3.25;;
53052;SDS011;38934;52.690;6.184;2023-02-01T23:49:26;12.77;;;2.53;;
53052;SDS011;38934;52.690;6.184;2023-02-01T23:51:52;18.95;;;3.30;;
53052;SDS011;38934;52.690;6.184;2023-02-01T23:54:18;10.90;;;2.90;;
53052;SDS011;38934;52.690;6.184;2023-02-01T23:56:46;20.65;;;3.08;;